createdAt,value
2022-09-15T00:02:13.188Z,19.53
2022-09-15T00:04:39.730Z,19.47
2022-09-15T00:07:06.204Z,19.41
2022-09-15T00:09:32.908Z,19.35
2022-09-15T00:11:59.294Z,19.11
2022-09-15T00:14:25.566Z,18.76
2022-09-15T00:16:51.993Z,18.61
2022-09-15T00:19:18.380Z,18.45
2022-09-15T00:21:44.696Z,18.42
2022-09-15T00:24:11.087Z,18.46
2022-09-15T00:26:37.482Z,18.28
2022-09-15T00:29:04.512Z,18.07
2022-09-15T00:31:32.171Z,17.90
2022-09-15T00:34:02.387Z,17.77
2022-09-15T00:36:29.195Z,17.72
2022-09-15T00:38:56.533Z,17.70
2022-09-15T00:41:24.255Z,17.65
2022-09-15T00:43:59.598Z,17.63
2022-09-15T00:46:30.730Z,17.56
2022-09-15T00:49:09.387Z,17.77
2022-09-15T00:51:42.616Z,17.78
2022-09-15T00:54:17.630Z,17.62
2022-09-15T00:56:47.848Z,17.46
2022-09-15T00:59:21.390Z,17.66
2022-09-15T01:01:54.351Z,17.50
2022-09-15T01:04:20.803Z,17.36
2022-09-15T01:06:52.463Z,17.23
2022-09-15T01:09:31.562Z,17.15
2022-09-15T01:11:58.071Z,17.09
2022-09-15T01:14:24.496Z,17.12
2022-09-15T01:17:08.006Z,17.06
2022-09-15T01:19:52.839Z,16.96
2022-09-15T01:22:56.775Z,16.94
2022-09-15T01:25:50.998Z,16.84
2022-09-15T01:28:43.775Z,16.86
2022-09-15T01:31:20.290Z,16.84
2022-09-15T01:33:54.807Z,16.86
2022-09-15T01:36:32.073Z,17.22
2022-09-15T01:39:13.645Z,17.13
2022-09-15T01:41:50.702Z,17.04
2022-09-15T01:44:28.961Z,16.94
2022-09-15T01:47:00.049Z,16.97
2022-09-15T01:49:31.278Z,16.94
2022-09-15T01:51:57.661Z,16.91
2022-09-15T01:54:26.441Z,16.90
2022-09-15T01:56:52.907Z,16.86
2022-09-15T01:59:19.268Z,16.76
2022-09-15T02:01:58.813Z,16.72
2022-09-15T02:04:34.749Z,16.67
2022-09-15T02:07:21.072Z,16.70
2022-09-15T02:09:54.621Z,16.63
2022-09-15T02:12:39.165Z,17.55
2022-09-15T02:15:20.762Z,17.78
2022-09-15T02:17:54.128Z,17.84
2022-09-15T02:20:34.178Z,18.16
2022-09-15T02:23:08.360Z,18.18
2022-09-15T02:25:41.125Z,18.27
2022-09-15T02:28:11.726Z,18.44
2022-09-15T02:30:41.858Z,18.60
2022-09-15T02:33:15.838Z,18.55
2022-09-15T02:35:43.490Z,18.50
2022-09-15T02:38:11.982Z,18.49
2022-09-15T02:40:43.686Z,18.65
2022-09-15T02:43:16.038Z,18.65
2022-09-15T02:45:43.294Z,18.81
2022-09-15T02:48:09.777Z,18.77
2022-09-15T02:50:37.380Z,18.80
2022-09-15T02:53:04.332Z,18.74
2022-09-15T02:55:30.863Z,18.65
2022-09-15T02:57:57.686Z,18.76
2022-09-15T03:00:24.896Z,18.74
2022-09-15T03:02:53.620Z,18.66
2022-09-15T03:05:28.577Z,18.71
2022-09-15T03:07:56.282Z,18.60
2022-09-15T03:10:24.653Z,18.63
2022-09-15T03:12:53.506Z,18.65
2022-09-15T03:15:23.955Z,18.57
2022-09-15T03:17:51.052Z,18.54
2022-09-15T03:20:28.017Z,18.51
2022-09-15T03:22:54.746Z,18.57
2022-09-15T03:25:21.220Z,18.46
2022-09-15T03:27:47.794Z,18.50
2022-09-15T03:30:14.511Z,18.44
2022-09-15T03:32:40.985Z,18.46
2022-09-15T03:35:07.778Z,18.32
2022-09-15T03:37:34.614Z,18.11
2022-09-15T03:40:01.163Z,17.90
2022-09-15T03:42:27.892Z,17.74
2022-09-15T03:44:54.313Z,17.62
2022-09-15T03:47:20.587Z,17.61
2022-09-15T03:49:47.527Z,17.54
2022-09-15T03:52:14.071Z,17.43
2022-09-15T03:54:40.568Z,17.30
2022-09-15T03:57:07.078Z,17.38
2022-09-15T03:59:33.363Z,17.32
2022-09-15T04:01:59.792Z,17.38
2022-09-15T04:04:26.211Z,17.35
2022-09-15T04:06:53.127Z,17.38
2022-09-15T04:09:20.460Z,17.28
2022-09-15T04:11:47.535Z,17.38
2022-09-15T04:14:13.909Z,17.36
2022-09-15T04:16:40.319Z,17.31
2022-09-15T04:19:07.412Z,17.40
2022-09-15T04:21:33.936Z,17.34
2022-09-15T04:24:00.318Z,17.37
2022-09-15T04:26:32.357Z,17.41
2022-09-15T04:29:03.960Z,17.45
2022-09-15T04:31:32.181Z,17.60
2022-09-15T04:33:59.309Z,17.63
2022-09-15T04:36:28.196Z,17.66
2022-09-15T04:38:55.550Z,17.66
2022-09-15T04:41:23.587Z,17.68
2022-09-15T04:43:50.549Z,17.69
2022-09-15T04:46:18.506Z,17.68
2022-09-15T04:48:46.091Z,17.79
2022-09-15T04:51:15.780Z,17.73
2022-09-15T04:53:43.666Z,17.90
2022-09-15T04:56:13.490Z,17.87
2022-09-15T04:58:42.723Z,17.79
2022-09-15T05:01:23.393Z,17.78
2022-09-15T05:03:50.122Z,17.79
2022-09-15T05:06:19.738Z,17.84
2022-09-15T05:08:51.274Z,17.81
2022-09-15T05:11:18.811Z,17.85
2022-09-15T05:13:45.691Z,17.85
2022-09-15T05:16:18.273Z,17.89
2022-09-15T05:18:46.601Z,17.86
2022-09-15T05:21:15.720Z,17.85
2022-09-15T05:23:42.510Z,17.95
2022-09-15T05:26:12.632Z,18.01
2022-09-15T05:28:39.549Z,17.98
2022-09-15T05:31:17.681Z,17.98
2022-09-15T05:33:45.732Z,17.89
2022-09-15T05:36:14.899Z,17.90
2022-09-15T05:38:41.363Z,17.91
2022-09-15T05:41:09.843Z,17.83
2022-09-15T05:43:37.835Z,17.84
2022-09-15T05:46:05.463Z,17.74
2022-09-15T05:48:32.223Z,17.70
2022-09-15T05:50:59.114Z,17.67
2022-09-15T05:53:30.872Z,17.65
2022-09-15T05:55:59.856Z,17.60
2022-09-15T05:58:27.449Z,17.60
2022-09-15T06:00:55.026Z,17.56
2022-09-15T06:03:22.595Z,17.56
2022-09-15T06:05:59.674Z,17.57
2022-09-15T06:08:30.859Z,17.57
2022-09-15T06:11:02.611Z,17.46
2022-09-15T06:13:29.302Z,17.52
2022-09-15T06:16:01.472Z,17.46
2022-09-15T06:18:28.220Z,17.51
2022-09-15T06:20:54.712Z,17.45
2022-09-15T06:23:21.002Z,17.52
2022-09-15T06:25:47.503Z,17.52
2022-09-15T06:28:13.779Z,17.51
2022-09-15T06:30:41.217Z,17.55
2022-09-15T06:33:08.956Z,17.57
2022-09-15T06:35:35.400Z,17.59
2022-09-15T06:38:01.780Z,17.58
2022-09-15T06:40:28.361Z,17.58
2022-09-15T06:42:56.876Z,17.70
2022-09-15T06:45:23.220Z,17.69
2022-09-15T06:48:13.333Z,17.70
2022-09-15T06:50:38.292Z,17.74
2022-09-15T06:53:04.574Z,17.80
2022-09-15T06:55:31.022Z,17.64
2022-09-15T06:57:57.439Z,17.66
2022-09-15T07:00:23.811Z,17.65
2022-09-15T07:02:50.264Z,17.64
2022-09-15T07:05:16.971Z,17.69
2022-09-15T07:07:43.679Z,17.62
2022-09-15T07:10:10.051Z,17.69
2022-09-15T07:12:37.116Z,17.73
2022-09-15T07:15:03.850Z,17.71
2022-09-15T07:17:30.263Z,17.66
2022-09-15T07:19:57.371Z,17.73
2022-09-15T07:22:24.599Z,17.77
2022-09-15T07:24:50.962Z,17.74
2022-09-15T07:27:17.328Z,17.77
2022-09-15T07:29:43.795Z,17.75
2022-09-15T07:32:10.215Z,17.76
2022-09-15T07:34:36.555Z,17.78
2022-09-15T07:37:03.058Z,17.76
2022-09-15T07:39:29.359Z,17.78
2022-09-15T07:41:55.714Z,17.76
2022-09-15T07:44:22.000Z,17.79
2022-09-15T07:46:48.350Z,17.79
2022-09-15T07:49:14.745Z,17.76
2022-09-15T07:51:41.083Z,17.88
2022-09-15T07:54:07.480Z,17.96
2022-09-15T07:56:34.152Z,17.97
2022-09-15T07:59:00.578Z,18.06
2022-09-15T08:01:27.309Z,18.24
2022-09-15T08:03:53.956Z,18.63
2022-09-15T08:06:25.378Z,18.82
2022-09-15T08:08:56.288Z,19.06
2022-09-15T08:11:26.564Z,19.03
2022-09-15T08:13:52.979Z,19.10
2022-09-15T08:16:22.038Z,19.09
2022-09-15T08:18:49.628Z,19.03
2022-09-15T08:21:20.196Z,18.93
2022-09-15T08:23:51.572Z,18.77
2022-09-15T08:26:18.599Z,18.78
2022-09-15T08:28:44.982Z,18.65
2022-09-15T08:31:13.299Z,18.45
2022-09-15T08:33:45.253Z,18.53
2022-09-15T08:36:13.030Z,18.43
2022-09-15T08:38:41.425Z,18.43
2022-09-15T08:41:27.410Z,18.36
2022-09-15T08:44:02.684Z,18.44
2022-09-15T08:46:39.301Z,18.34
2022-09-15T08:49:51.071Z,18.39
2022-09-15T08:52:44.092Z,18.39
2022-09-15T08:55:36.901Z,18.29
2022-09-15T08:58:05.065Z,18.23
2022-09-15T09:00:32.521Z,18.25
2022-09-15T09:03:32.208Z,18.27
2022-09-15T09:06:03.242Z,18.29
2022-09-15T09:08:41.975Z,18.28
2022-09-15T09:11:24.703Z,18.39
2022-09-15T09:14:18.688Z,18.34
2022-09-15T09:17:26.583Z,18.37
2022-09-15T09:20:20.167Z,18.40
2022-09-15T09:22:50.155Z,18.33
2022-09-15T09:25:27.101Z,18.42
2022-09-15T09:27:54.659Z,18.40
2022-09-15T09:30:23.575Z,18.46
2022-09-15T09:33:13.142Z,18.34
2022-09-15T09:35:53.731Z,18.35
2022-09-15T09:38:27.427Z,18.36
2022-09-15T09:40:57.485Z,18.33
2022-09-15T09:43:28.433Z,18.30
2022-09-15T09:45:55.126Z,18.38
2022-09-15T09:48:24.033Z,18.34
2022-09-15T09:50:50.911Z,18.36
2022-09-15T09:53:33.797Z,18.36
2022-09-15T09:56:12.524Z,18.43
2022-09-15T09:58:39.051Z,18.38
2022-09-15T10:01:15.866Z,18.37
2022-09-15T10:03:43.268Z,18.38
2022-09-15T10:06:23.055Z,18.35
2022-09-15T10:09:05.186Z,18.45
2022-09-15T10:11:46.735Z,18.42
2022-09-15T10:14:40.400Z,18.46
2022-09-15T10:17:14.053Z,18.50
2022-09-15T10:19:52.570Z,18.53
2022-09-15T10:22:34.311Z,18.51
2022-09-15T10:25:03.340Z,18.49
2022-09-15T10:27:32.708Z,18.38
2022-09-15T10:30:16.526Z,18.37
2022-09-15T10:32:43.186Z,18.45
2022-09-15T10:35:10.251Z,18.54
2022-09-15T10:38:08.816Z,18.57
2022-09-15T10:40:55.824Z,18.46
2022-09-15T10:43:44.344Z,18.42
2022-09-15T10:46:18.799Z,18.34
2022-09-15T10:49:09.873Z,18.54
2022-09-15T10:52:10.775Z,18.49
2022-09-15T10:54:48.504Z,18.58
2022-09-15T10:57:28.456Z,18.63
2022-09-15T11:00:11.873Z,18.65
2022-09-15T11:02:55.244Z,18.70
2022-09-15T11:05:52.892Z,18.67
2022-09-15T11:09:02.118Z,18.66
2022-09-15T11:11:59.608Z,18.54
2022-09-15T11:14:40.876Z,18.44
2022-09-15T11:17:34.878Z,18.35
2022-09-15T11:20:34.579Z,18.22
2022-09-15T11:23:15.406Z,18.13
2022-09-15T11:25:45.131Z,18.11
2022-09-15T11:28:18.548Z,18.05
2022-09-15T11:30:55.243Z,18.09
2022-09-15T11:33:29.459Z,18.02
2022-09-15T11:36:06.513Z,18.01
2022-09-15T11:38:35.676Z,17.99
2022-09-15T11:41:10.887Z,17.98
2022-09-15T11:43:52.944Z,17.97
2022-09-15T11:46:29.965Z,17.75
2022-09-15T11:49:13.803Z,17.64
2022-09-15T11:51:50.624Z,17.62
2022-09-15T11:54:34.297Z,17.77
2022-09-15T11:57:00.795Z,17.74
2022-09-15T11:59:36.365Z,17.83
2022-09-15T12:02:39.988Z,17.87
2022-09-15T12:05:19.500Z,17.84
2022-09-15T12:08:01.027Z,17.96
2022-09-15T12:10:31.720Z,17.94
2022-09-15T12:13:00.712Z,17.85
2022-09-15T12:15:27.373Z,17.77
2022-09-15T12:18:10.861Z,17.60
2022-09-15T12:20:57.887Z,17.59
2022-09-15T12:23:41.684Z,17.51
2022-09-15T12:26:20.092Z,17.33
2022-09-15T12:28:46.529Z,17.23
2022-09-15T12:31:28.041Z,17.07
2022-09-15T12:34:03.813Z,16.97
2022-09-15T12:36:32.759Z,17.01
2022-09-15T12:39:00.635Z,16.93
2022-09-15T12:41:28.073Z,16.91
2022-09-15T12:43:57.582Z,16.85
2022-09-15T12:46:25.257Z,16.83
2022-09-15T12:48:59.149Z,16.74
2022-09-15T12:51:28.150Z,16.78
2022-09-15T12:54:07.364Z,16.66
2022-09-15T12:56:35.044Z,16.50
2022-09-15T12:59:07.171Z,16.64
2022-09-15T13:01:47.696Z,16.57
2022-09-15T13:04:25.622Z,16.62
2022-09-15T13:07:17.220Z,16.38
2022-09-15T13:09:55.347Z,16.33
2022-09-15T13:12:26.273Z,16.33
2022-09-15T13:14:55.842Z,16.34
2022-09-15T13:17:25.534Z,16.43
2022-09-15T13:19:59.725Z,16.45
2022-09-15T13:22:45.255Z,16.48
2022-09-15T13:25:13.744Z,16.40
2022-09-15T13:28:11.748Z,16.42
2022-09-15T13:30:38.215Z,16.43
2022-09-15T13:35:02.345Z,16.62
2022-09-15T13:38:04.391Z,16.64
2022-09-15T13:39:46.956Z,16.52
2022-09-15T13:42:35.484Z,16.73
2022-09-15T13:45:07.800Z,16.99
2022-09-15T13:47:43.320Z,17.06
2022-09-15T13:50:40.219Z,17.18
2022-09-15T13:53:26.510Z,17.22
2022-09-15T13:55:56.047Z,17.16
2022-09-15T14:01:12.978Z,17.19
2022-09-15T14:04:07.241Z,17.16
2022-09-15T14:06:37.659Z,17.03
2022-09-15T14:09:43.326Z,17.02
2022-09-15T14:12:12.739Z,16.98
2022-09-15T14:14:44.897Z,16.91
2022-09-15T14:17:24.894Z,16.82
2022-09-15T14:19:54.592Z,16.78
2022-09-15T14:22:20.925Z,16.83
2022-09-15T14:24:47.547Z,16.79
2022-09-15T14:27:22.115Z,16.74
2022-09-15T14:29:51.075Z,16.68
2022-09-15T14:32:18.121Z,16.69
2022-09-15T14:34:45.665Z,16.71
2022-09-15T14:37:15.856Z,16.73
2022-09-15T14:39:49.346Z,16.64
2022-09-15T14:42:21.755Z,16.67
2022-09-15T14:47:35.781Z,16.55
2022-09-15T14:50:12.104Z,16.49
2022-09-15T14:52:41.565Z,16.43
2022-09-15T14:55:15.415Z,16.55
2022-09-15T14:57:48.800Z,16.58
2022-09-15T15:00:22.344Z,16.68
2022-09-15T15:03:03.826Z,16.50
2022-09-15T15:05:40.464Z,16.35
2022-09-15T15:08:09.566Z,16.46
2022-09-15T15:10:36.644Z,16.56
2022-09-15T15:13:09.575Z,16.61
2022-09-15T15:15:37.961Z,16.85
2022-09-15T15:18:45.012Z,16.88
2022-09-15T15:21:38.591Z,16.88
2022-09-15T15:24:18.858Z,16.99
2022-09-15T15:26:48.875Z,17.12
2022-09-15T15:29:43.302Z,17.13
2022-09-15T15:32:36.314Z,16.93
2022-09-15T15:35:03.953Z,16.79
2022-09-15T15:37:33.761Z,16.77
2022-09-15T15:40:04.350Z,16.68
2022-09-15T15:42:30.964Z,16.56
2022-09-15T15:45:04.135Z,16.45
2022-09-15T15:47:36.874Z,16.45
2022-09-15T15:50:15.740Z,16.47
2022-09-15T15:52:42.327Z,16.54
2022-09-15T15:55:13.478Z,16.58
2022-09-15T15:57:39.925Z,16.78
2022-09-15T16:00:21.080Z,16.88
2022-09-15T16:02:48.886Z,16.89
2022-09-15T16:05:15.400Z,16.99
2022-09-15T16:07:45.052Z,17.13
2022-09-15T16:10:16.853Z,17.16
2022-09-15T16:12:43.405Z,17.40
2022-09-15T16:15:15.206Z,17.53
2022-09-15T16:17:45.968Z,17.64
2022-09-15T16:20:15.679Z,17.67
2022-09-15T16:22:42.338Z,17.65
2022-09-15T16:25:28.612Z,17.68
2022-09-15T16:27:55.270Z,17.62
2022-09-15T16:30:21.645Z,17.50
2022-09-15T16:32:48.002Z,17.58
2022-09-15T16:38:25.769Z,17.37
2022-09-15T16:40:52.272Z,17.26
2022-09-15T16:43:23.341Z,17.17
2022-09-15T16:45:51.083Z,17.01
2022-09-15T16:48:17.855Z,16.95
2022-09-15T16:51:01.240Z,16.91
2022-09-15T16:53:32.591Z,16.76
2022-09-15T16:55:59.093Z,16.77
2022-09-15T16:58:25.483Z,16.85
2022-09-15T17:00:52.805Z,16.85
2022-09-15T17:03:21.744Z,16.74
2022-09-15T17:05:56.078Z,16.70
2022-09-15T17:08:25.568Z,16.68
2022-09-15T17:10:52.899Z,16.63
2022-09-15T17:13:23.981Z,16.55
2022-09-15T17:15:56.222Z,16.35
2022-09-15T17:18:23.371Z,16.20
2022-09-15T17:20:50.880Z,16.15
2022-09-15T17:23:24.772Z,16.09
2022-09-15T17:25:53.672Z,16.06
2022-09-15T17:28:22.824Z,15.84
2022-09-15T17:30:51.942Z,15.55
2022-09-15T17:33:20.121Z,15.61
2022-09-15T17:35:47.663Z,15.56
2022-09-15T17:38:15.163Z,15.44
2022-09-15T17:40:47.824Z,15.48
2022-09-15T17:43:17.509Z,15.49
2022-09-15T17:45:44.404Z,15.45
2022-09-15T17:48:11.914Z,15.42
2022-09-15T17:50:48.787Z,15.38
2022-09-15T17:53:26.497Z,15.26
2022-09-15T17:55:54.681Z,15.28
2022-09-15T17:58:22.186Z,15.21
2022-09-15T18:00:49.525Z,15.01
2022-09-15T18:03:19.880Z,15.00
2022-09-15T18:05:46.587Z,15.07
2022-09-15T18:08:13.283Z,15.01
2022-09-15T18:10:40.066Z,14.82
2022-09-15T18:13:07.440Z,14.77
2022-09-15T18:15:35.316Z,14.69
2022-09-15T18:18:04.366Z,14.67
2022-09-15T18:20:32.845Z,14.58
2022-09-15T18:23:00.085Z,14.48
2022-09-15T18:25:33.519Z,14.55
2022-09-15T18:28:04.249Z,14.59
2022-09-15T18:30:36.401Z,14.55
2022-09-15T18:33:03.116Z,14.50
2022-09-15T18:35:29.557Z,14.42
2022-09-15T18:37:57.516Z,14.34
2022-09-15T18:40:24.602Z,14.35
2022-09-15T18:42:51.762Z,14.40
2022-09-15T18:45:18.972Z,14.32
2022-09-15T18:47:50.311Z,14.35
2022-09-15T18:50:19.149Z,14.32
2022-09-15T18:52:45.789Z,14.18
2022-09-15T18:55:18.959Z,14.04
2022-09-15T18:57:46.233Z,13.97
2022-09-15T19:00:19.347Z,14.02
2022-09-15T19:02:46.440Z,14.05
2022-09-15T19:05:15.513Z,13.96
2022-09-15T19:07:43.319Z,13.98
2022-09-15T19:10:11.311Z,13.91
2022-09-15T19:12:38.583Z,13.85
2022-09-15T19:15:10.765Z,13.85
2022-09-15T19:17:39.384Z,13.78
2022-09-15T19:20:07.498Z,13.72
2022-09-15T19:22:35.327Z,13.72
2022-09-15T19:25:02.223Z,13.67
2022-09-15T19:27:28.716Z,13.63
2022-09-15T19:29:55.016Z,13.64
2022-09-15T19:32:22.128Z,13.59
2022-09-15T19:34:49.156Z,13.57
2022-09-15T19:37:18.979Z,13.52
2022-09-15T19:39:46.933Z,13.51
2022-09-15T19:44:45.956Z,13.46
2022-09-15T19:47:12.426Z,13.41
2022-09-15T19:49:38.895Z,13.38
2022-09-15T19:52:06.314Z,13.33
2022-09-15T19:54:34.315Z,13.33
2022-09-15T19:57:00.779Z,13.24
2022-09-15T19:59:30.995Z,13.21
2022-09-15T20:01:58.882Z,13.15
2022-09-15T20:04:25.314Z,13.13
2022-09-15T20:06:51.835Z,13.11
2022-09-15T20:09:18.400Z,13.08
2022-09-15T20:11:44.934Z,13.04
2022-09-15T20:14:11.921Z,12.98
2022-09-15T20:16:38.542Z,13.00
2022-09-15T20:19:05.613Z,12.97
2022-09-15T20:21:51.115Z,12.97
2022-09-15T20:24:19.771Z,12.93
2022-09-15T20:26:46.262Z,12.86
2022-09-15T20:29:13.096Z,12.85
2022-09-15T20:31:40.088Z,12.84
2022-09-15T20:34:06.527Z,12.81
2022-09-15T20:36:36.293Z,12.82
2022-09-15T20:39:06.061Z,12.84
2022-09-15T20:41:32.459Z,12.81
2022-09-15T20:44:00.116Z,12.76
2022-09-15T20:46:28.821Z,12.71
2022-09-15T20:48:55.229Z,12.67
2022-09-15T20:51:24.294Z,12.69
2022-09-15T20:53:52.852Z,12.69
2022-09-15T20:56:24.729Z,12.70
2022-09-15T20:58:53.059Z,12.71
2022-09-15T21:01:25.031Z,12.67
2022-09-15T21:03:51.604Z,12.65
2022-09-15T21:06:19.677Z,12.69
2022-09-15T21:08:47.799Z,12.68
2022-09-15T21:11:14.741Z,12.60
2022-09-15T21:13:43.266Z,12.64
2022-09-15T21:16:15.572Z,12.59
2022-09-15T21:18:43.614Z,12.59
2022-09-15T21:21:14.882Z,12.52
2022-09-15T21:23:49.454Z,12.52
2022-09-15T21:26:21.324Z,12.50
2022-09-15T21:28:48.660Z,12.46
2022-09-15T21:31:18.224Z,12.38
2022-09-15T21:33:46.526Z,12.32
2022-09-15T21:36:22.306Z,12.34
2022-09-15T21:38:50.287Z,12.34
2022-09-15T21:41:20.737Z,12.34
2022-09-15T21:43:48.293Z,12.32
2022-09-15T21:46:19.792Z,12.35
2022-09-15T21:48:47.430Z,12.32
2022-09-15T21:51:16.841Z,12.32
2022-09-15T21:53:46.463Z,12.33
2022-09-15T21:56:13.248Z,12.28
2022-09-15T21:58:42.896Z,12.29
2022-09-15T22:01:22.671Z,12.32
2022-09-15T22:03:51.674Z,12.29
2022-09-15T22:06:20.298Z,12.22
2022-09-15T22:08:47.220Z,12.21
2022-09-15T22:11:14.134Z,12.21
2022-09-15T22:13:43.474Z,12.17
2022-09-15T22:16:18.196Z,12.17
2022-09-15T22:18:45.744Z,12.15
2022-09-15T22:21:14.874Z,12.10
2022-09-15T22:23:42.580Z,12.11
2022-09-15T22:26:15.947Z,12.13
2022-09-15T22:28:42.727Z,12.11
2022-09-15T22:31:11.698Z,12.22
2022-09-15T22:33:40.876Z,12.08
2022-09-15T22:36:12.141Z,12.04
2022-09-15T22:38:38.842Z,12.02
2022-09-15T22:41:08.903Z,11.99
2022-09-15T22:43:36.253Z,11.92
2022-09-15T22:46:03.059Z,11.90
2022-09-15T22:48:29.709Z,11.90
2022-09-15T22:50:56.003Z,11.87
2022-09-15T22:53:23.398Z,11.88
2022-09-15T22:56:04.863Z,11.89
2022-09-15T22:58:33.080Z,11.82
2022-09-15T23:01:10.083Z,11.79
2022-09-15T23:03:37.265Z,11.81
2022-09-15T23:06:04.221Z,11.76
2022-09-15T23:08:31.463Z,11.75
2022-09-15T23:11:02.699Z,11.72
2022-09-15T23:13:29.476Z,11.68
2022-09-15T23:15:55.909Z,11.65
2022-09-15T23:18:22.368Z,11.64
2022-09-15T23:20:55.657Z,11.67
2022-09-15T23:23:22.109Z,11.62
2022-09-15T23:25:48.469Z,11.65
2022-09-15T23:28:14.948Z,11.62
2022-09-15T23:30:41.341Z,11.57
2022-09-15T23:33:07.704Z,11.52
2022-09-15T23:35:35.547Z,11.52
2022-09-15T23:38:02.458Z,11.47
2022-09-15T23:40:29.528Z,11.47
2022-09-15T23:42:55.941Z,11.41
2022-09-15T23:45:22.307Z,11.44
2022-09-15T23:47:48.973Z,11.41
2022-09-15T23:50:15.424Z,11.38
2022-09-15T23:52:41.824Z,11.41
2022-09-15T23:55:08.781Z,11.41
2022-09-15T23:57:35.262Z,11.38
